createdAt,value
2023-01-30T00:03:23.915Z,97761.06
2023-01-30T00:08:26.044Z,97744.50
2023-01-30T00:13:27.626Z,97730.75
2023-01-30T00:18:29.744Z,97727.41
2023-01-30T00:23:32.924Z,97721.22
2023-01-30T00:28:35.537Z,97716.66
2023-01-30T00:33:39.620Z,97719.72
2023-01-30T00:38:41.479Z,97722.78
2023-01-30T00:44:01.711Z,97700.44
2023-01-30T00:49:03.386Z,97704.09
2023-01-30T00:54:05.109Z,97684.59
2023-01-30T00:59:06.925Z,97681.66
2023-01-30T01:04:10.406Z,97685.38
2023-01-30T01:09:12.168Z,97687.44
2023-01-30T01:14:15.344Z,97674.59
2023-01-30T01:19:17.416Z,97663.22
2023-01-30T01:24:19.150Z,97656.53
2023-01-30T01:29:20.948Z,97660.53
2023-01-30T01:34:22.688Z,97648.91
2023-01-30T01:39:24.350Z,97656.16
2023-01-30T01:44:26.041Z,97658.59
2023-01-30T01:49:35.233Z,97664.59
2023-01-30T01:54:45.239Z,97668.47
2023-01-30T01:59:54.771Z,97664.41
2023-01-30T02:05:02.955Z,97671.72
2023-01-30T02:10:06.704Z,97668.75
2023-01-30T02:15:08.936Z,97693.31
2023-01-30T02:20:32.312Z,97697.13
2023-01-30T02:26:05.204Z,97693.44
2023-01-30T02:31:25.979Z,97680.63
2023-01-30T02:36:28.204Z,97685.63
2023-01-30T02:41:47.342Z,97670.34
2023-01-30T02:47:07.880Z,97669.88
2023-01-30T02:52:12.547Z,97658.38
2023-01-30T02:57:23.259Z,97637.13
2023-01-30T03:03:07.446Z,97668.22
2023-01-30T03:08:54.038Z,97668.69
2023-01-30T03:14:06.275Z,97654.94
2023-01-30T03:19:13.734Z,97668.75
2023-01-30T03:24:16.742Z,97645.19
2023-01-30T03:29:18.487Z,97617.28
2023-01-30T03:34:20.261Z,97620.66
2023-01-30T03:39:24.351Z,97587.16
2023-01-30T03:44:26.862Z,97606.25
2023-01-30T03:49:28.768Z,97627.31
2023-01-30T03:54:32.115Z,97633.78
2023-01-30T03:59:34.165Z,97633.84
2023-01-30T04:04:41.316Z,97628.78
2023-01-30T04:09:45.347Z,97605.28
2023-01-30T04:14:47.787Z,97587.13
2023-01-30T04:20:01.278Z,97559.75
2023-01-30T04:25:05.575Z,97548.44
2023-01-30T04:30:07.869Z,97533.75
2023-01-30T04:35:10.395Z,97520.13
2023-01-30T04:40:13.089Z,97517.63
2023-01-30T04:45:15.120Z,97507.06
2023-01-30T04:50:18.154Z,97509.34
2023-01-30T04:55:20.183Z,97515.19
2023-01-30T05:00:22.124Z,97528.63
2023-01-30T05:05:29.343Z,97535.47
2023-01-30T05:10:31.365Z,97520.66
2023-01-30T05:15:33.842Z,97515.66
2023-01-30T05:20:38.007Z,97526.66
2023-01-30T05:25:39.711Z,97520.13
2023-01-30T05:30:41.613Z,97501.81
2023-01-30T05:35:47.797Z,97483.75
2023-01-30T05:41:04.024Z,97473.88
2023-01-30T05:46:06.714Z,97497.06
2023-01-30T05:51:15.407Z,97518.34
2023-01-30T05:56:18.038Z,97523.84
2023-01-30T06:01:20.109Z,97502.81
2023-01-30T06:06:22.777Z,97502.50
2023-01-30T06:11:25.076Z,97497.34
2023-01-30T06:16:26.899Z,97479.41
2023-01-30T06:21:28.572Z,97502.66
2023-01-30T06:26:30.470Z,97494.41
2023-01-30T06:31:32.135Z,97504.00
2023-01-30T06:36:33.928Z,97503.66
2023-01-30T06:41:35.659Z,97506.03
2023-01-30T06:46:37.294Z,97512.84
2023-01-30T06:51:39.081Z,97505.25
2023-01-30T06:56:40.994Z,97505.03
2023-01-30T07:01:42.742Z,97502.56
2023-01-30T07:06:44.463Z,97492.41
2023-01-30T07:11:47.690Z,97487.22
2023-01-30T07:16:49.346Z,97481.00
2023-01-30T07:21:51.157Z,97477.69
2023-01-30T07:26:52.796Z,97479.19
2023-01-30T07:31:54.574Z,97469.88
2023-01-30T07:36:56.247Z,97474.66
2023-01-30T07:42:00.847Z,97460.75
2023-01-30T07:47:02.562Z,97469.88
2023-01-30T07:52:04.236Z,97469.44
2023-01-30T07:57:06.034Z,97434.69
2023-01-30T08:02:10.148Z,97427.69
2023-01-30T08:07:11.946Z,97434.75
2023-01-30T08:12:13.657Z,97438.47
2023-01-30T08:17:15.252Z,97423.19
2023-01-30T08:22:17.364Z,97439.16
2023-01-30T08:27:19.049Z,97456.19
2023-01-30T08:32:20.727Z,97463.00
2023-01-30T08:37:22.359Z,97441.47
2023-01-30T08:42:24.030Z,97430.09
2023-01-30T08:47:25.776Z,97426.16
2023-01-30T08:52:27.465Z,97406.66
2023-01-30T08:57:29.128Z,97396.09
2023-01-30T09:02:31.112Z,97411.66
2023-01-30T09:07:33.327Z,97407.50
2023-01-30T09:12:35.212Z,97408.75
2023-01-30T09:17:38.217Z,97381.34
2023-01-30T09:22:39.951Z,97367.19
2023-01-30T09:27:44.448Z,97373.38
2023-01-30T09:32:46.150Z,97343.19
2023-01-30T09:37:50.473Z,97329.03
2023-01-30T09:42:59.979Z,97325.03
2023-01-30T09:48:20.784Z,97323.69
2023-01-30T09:53:59.483Z,97334.44
2023-01-30T09:59:04.406Z,97302.34
2023-01-30T10:04:14.730Z,97271.47
2023-01-30T10:09:46.835Z,97268.44
2023-01-30T10:15:14.680Z,97276.00
2023-01-30T10:20:34.704Z,97262.19
2023-01-30T10:25:47.152Z,97285.78
2023-01-30T10:30:52.739Z,97291.41
2023-01-30T10:36:06.541Z,97304.59
2023-01-30T10:41:31.959Z,97296.19
2023-01-30T10:46:52.387Z,97290.56
2023-01-30T10:52:00.113Z,97274.34
2023-01-30T10:57:11.925Z,97248.13
2023-01-30T11:02:16.579Z,97236.59
2023-01-30T11:07:18.928Z,97245.44
2023-01-30T11:12:20.678Z,97246.94
2023-01-30T11:17:32.786Z,97225.91
2023-01-30T11:22:36.746Z,97210.81
2023-01-30T11:27:42.481Z,97200.13
2023-01-30T11:32:47.651Z,97204.94
2023-01-30T11:37:53.300Z,97198.34
2023-01-30T11:43:10.440Z,97220.50
2023-01-30T11:48:34.104Z,97212.31
2023-01-30T11:53:56.174Z,97203.28
2023-01-30T11:59:28.106Z,97184.31
2023-01-30T12:04:30.017Z,97185.66
2023-01-30T12:09:35.679Z,97186.25
2023-01-30T12:14:43.465Z,97177.34
2023-01-30T12:19:51.865Z,97171.56
2023-01-30T12:25:25.160Z,97156.50
2023-01-30T12:30:30.272Z,97173.56
2023-01-30T12:35:54.459Z,97180.66
2023-01-30T12:41:31.487Z,97152.59
2023-01-30T12:46:58.814Z,97168.72
2023-01-30T12:52:31.928Z,97189.09
2023-01-30T12:58:00.526Z,97172.84
2023-01-30T13:03:23.741Z,97174.94
2023-01-30T13:08:35.455Z,97183.41
2023-01-30T13:13:46.053Z,97193.34
2023-01-30T13:19:12.660Z,97186.38
2023-01-30T13:24:43.450Z,97202.06
2023-01-30T13:29:47.748Z,97218.78
2023-01-30T13:34:50.677Z,97234.31
2023-01-30T13:40:17.212Z,97216.94
2023-01-30T13:45:26.656Z,97238.06
2023-01-30T13:50:55.130Z,97251.31
2023-01-30T13:56:40.686Z,97276.81
2023-01-30T14:02:02.059Z,97278.03
2023-01-30T14:07:09.637Z,97281.59
2023-01-30T14:12:24.805Z,97288.28
2023-01-30T14:17:26.915Z,97285.63
2023-01-30T14:22:35.349Z,97286.28
2023-01-30T14:27:37.028Z,97300.06
2023-01-30T14:32:55.775Z,97299.44
2023-01-30T14:38:06.641Z,97305.31
2023-01-30T14:43:20.370Z,97311.59
2023-01-30T14:48:37.602Z,97297.88
2023-01-30T14:53:59.168Z,97309.31
2023-01-30T14:59:03.983Z,97323.44
2023-01-30T15:04:05.781Z,97328.63
2023-01-30T15:09:09.450Z,97349.22
2023-01-30T15:14:20.293Z,97332.53
2023-01-30T15:20:02.441Z,97338.56
2023-01-30T15:25:30.806Z,97327.09
2023-01-30T15:30:39.662Z,97330.00
2023-01-30T15:35:42.912Z,97312.31
2023-01-30T15:40:45.653Z,97320.84
2023-01-30T15:46:11.789Z,97335.84
2023-01-30T15:51:16.847Z,97348.31
2023-01-30T15:56:28.852Z,97362.44
2023-01-30T16:01:31.054Z,97401.13
2023-01-30T16:06:37.493Z,97411.47
2023-01-30T16:11:42.079Z,97416.44
2023-01-30T16:16:46.708Z,97427.66
2023-01-30T16:21:48.771Z,97455.91
2023-01-30T16:26:55.227Z,97456.34
2023-01-30T16:31:57.324Z,97438.84
2023-01-30T16:37:07.602Z,97440.47
2023-01-30T16:42:25.792Z,97464.59
2023-01-30T16:47:31.433Z,97488.75
2023-01-30T16:52:44.034Z,97498.72
2023-01-30T16:57:53.105Z,97503.28
2023-01-30T17:02:58.162Z,97509.06
2023-01-30T17:08:00.541Z,97494.31
2023-01-30T17:13:02.449Z,97479.94
2023-01-30T17:18:04.467Z,97500.72
2023-01-30T17:23:09.314Z,97517.97
2023-01-30T17:28:18.187Z,97517.97
2023-01-30T17:33:20.120Z,97510.25
2023-01-30T17:38:21.866Z,97531.06
2023-01-30T17:43:24.206Z,97518.59
2023-01-30T17:48:25.825Z,97527.34
2023-01-30T17:53:27.484Z,97526.13
2023-01-30T17:58:29.455Z,97554.81
2023-01-30T18:03:31.268Z,97562.28
2023-01-30T18:08:32.952Z,97590.16
2023-01-30T18:13:35.669Z,97590.56
2023-01-30T18:18:38.002Z,97587.66
2023-01-30T18:23:39.773Z,97594.34
2023-01-30T18:28:41.567Z,97583.09
2023-01-30T18:33:45.437Z,97593.91
2023-01-30T18:38:47.851Z,97610.94
2023-01-30T18:44:15.732Z,97599.69
2023-01-30T18:49:17.417Z,97617.19
2023-01-30T18:54:19.074Z,97617.56
2023-01-30T18:59:21.913Z,97601.53
2023-01-30T19:04:23.549Z,97592.41
2023-01-30T19:09:26.696Z,97618.41
2023-01-30T19:14:28.488Z,97597.81
2023-01-30T19:19:30.150Z,97623.81
2023-01-30T19:24:31.847Z,97632.78
2023-01-30T19:29:33.540Z,97641.69
2023-01-30T19:34:35.238Z,97646.69
2023-01-30T19:39:36.961Z,97645.84
2023-01-30T19:44:40.880Z,97639.84
2023-01-30T19:49:42.627Z,97655.03
2023-01-30T19:54:46.884Z,97644.63
2023-01-30T19:59:48.593Z,97636.72
2023-01-30T20:04:50.246Z,97645.41
2023-01-30T20:09:51.987Z,97652.94
2023-01-30T20:14:53.674Z,97647.09
2023-01-30T20:19:55.376Z,97672.47
2023-01-30T20:24:57.104Z,97676.25
2023-01-30T20:29:58.901Z,97673.53
2023-01-30T20:35:00.749Z,97682.47
2023-01-30T20:40:02.451Z,97675.81
2023-01-30T20:45:04.672Z,97677.47
2023-01-30T20:50:06.608Z,97678.53
2023-01-30T20:55:08.845Z,97670.63
2023-01-30T21:00:12.541Z,97693.28
2023-01-30T21:05:14.292Z,97695.78
2023-01-30T21:10:16.332Z,97699.13
2023-01-30T21:15:18.230Z,97710.78
2023-01-30T21:20:20.220Z,97712.03
2023-01-30T21:25:22.151Z,97709.94
2023-01-30T21:30:23.818Z,97719.09
2023-01-30T21:35:25.424Z,97737.81
2023-01-30T21:40:45.500Z,97728.63
2023-01-30T21:45:47.215Z,97732.84
2023-01-30T21:50:49.200Z,97754.50
2023-01-30T21:55:52.415Z,97749.06
2023-01-30T22:00:54.181Z,97753.22
2023-01-30T22:05:55.967Z,97759.06
2023-01-30T22:11:13.433Z,97784.06
2023-01-30T22:16:20.860Z,97773.00
2023-01-30T22:21:24.620Z,97768.22
2023-01-30T22:26:26.860Z,97761.13
2023-01-30T22:31:34.284Z,97762.59
2023-01-30T22:36:36.186Z,97767.59
2023-01-30T22:41:38.603Z,97757.81
2023-01-30T22:46:41.272Z,97749.06
2023-01-30T22:51:43.627Z,97764.09
2023-01-30T22:56:48.809Z,97757.19
2023-01-30T23:01:51.215Z,97756.56
2023-01-30T23:06:52.996Z,97765.09
2023-01-30T23:12:16.270Z,97799.88
2023-01-30T23:17:36.930Z,97792.38
2023-01-30T23:22:38.960Z,97789.06
2023-01-30T23:27:40.676Z,97785.31
2023-01-30T23:32:42.355Z,97789.06
2023-01-30T23:38:02.777Z,97789.06
2023-01-30T23:43:04.458Z,97795.72
2023-01-30T23:48:08.468Z,97794.47
2023-01-30T23:53:10.686Z,97798.19
2023-01-30T23:58:12.308Z,97803.41
